Wetterdaten: Woche 21.12.09 - 27.12.09 (KW52)
Datum Zeit Temp. A. Feuchte A. Luftdruck Regen Wind Richtung Taupunkt Windchill Windben
21.12.2009 00:00 -12,3 C 85 % 1007,9 hPa 0,0 l/m 0,3 km/h N -14,2 C -12,3 C 4,4 km/h
21.12.2009 01:00 -12,2 C 83 % 1008,5 hPa 0,0 l/m 0,9 km/h SW -14,5 C -12,2 C 4,4 km/h
21.12.2009 02:00 -11,9 C 83 % 1009,1 hPa 0,0 l/m 0,9 km/h O -14,2 C -11,9 C 5,6 km/h
21.12.2009 03:00 -11,5 C 83 % 1009,6 hPa 0,0 l/m 0,1 km/h N -13,8 C -11,5 C 2,0 km/h
21.12.2009 04:00 -11,0 C 83 % 1009,8 hPa 0,0 l/m 0,2 km/h N -13,4 C -11,0 C 2,0 km/h
21.12.2009 05:00 -10,9 C 83 % 1010,3 hPa 0,0 l/m 0,1 km/h N -13,3 C -10,9 C 2,0 km/h
21.12.2009 06:00 -10,8 C 83 % 1011,0 hPa 0,0 l/m 1,2 km/h S -13,1 C -10,8 C 6,0 km/h
21.12.2009 07:00 -10,5 C 82 % 1011,5 hPa 0,0 l/m 0,3 km/h N -12,9 C -10,5 C 2,8 km/h
21.12.2009 08:00 -11,0 C 82 % 1012,8 hPa 0,0 l/m 0,1 km/h N -13,4 C -11,0 C 2,0 km/h
21.12.2009 09:00 -9,7 C 84 % 1013,7 hPa 0,0 l/m 0,5 km/h N -11,9 C -9,7 C 5,2 km/h
21.12.2009 10:00 -7,9 C 84 % 1013,8 hPa 0,0 l/m 1,1 km/h SO -10,1 C -7,9 C 5,6 km/h
21.12.2009 11:00 -7,0 C 78 % 1013,2 hPa 0,0 l/m 0,9 km/h O-SO -10,2 C -7,0 C 5,2 km/h
21.12.2009 12:00 -6,7 C 75 % 1012,8 hPa 0,0 l/m 0,7 km/h O -10,4 C -6,7 C 5,2 km/h
21.12.2009 13:00 -6,6 C 75 % 1012,4 hPa 0,0 l/m 2,6 km/h O -10,2 C -6,6 C 8,5 km/h
21.12.2009 14:00 -6,2 C 75 % 1012,5 hPa 0,0 l/m 0,8 km/h N -10,0 C -6,2 C 4,8 km/h
21.12.2009 15:00 -6,7 C 76 % 1012,2 hPa 0,0 l/m 0,7 km/h N -10,3 C -6,7 C 4,4 km/h
21.12.2009 16:00 -7,2 C 78 % 1011,6 hPa 0,0 l/m 0,5 km/h N -10,4 C -7,2 C 5,6 km/h
21.12.2009 17:00 -8,2 C 80 % 1011,2 hPa 0,0 l/m 2,2 km/h O -11,0 C -8,2 C 7,2 km/h
21.12.2009 18:00 -9,1 C 82 % 1010,3 hPa 0,0 l/m 1,5 km/h O-SO -11,6 C -9,1 C 6,8 km/h
21.12.2009 19:00 -9,0 C 83 % 1009,6 hPa 0,0 l/m 0,3 km/h N -11,4 C -9,0 C 3,2 km/h
21.12.2009 20:00 -8,9 C 83 % 1008,9 hPa 0,0 l/m 0,0 km/h N -11,3 C -8,9 C 0,8 km/h
21.12.2009 21:00 -9,2 C 84 % 1008,0 hPa 0,0 l/m 0,0 km/h N -11,4 C -9,2 C 0,4 km/h
21.12.2009 22:00 -9,9 C 84 % 1007,0 hPa 0,0 l/m 0,0 km/h N -12,1 C -9,9 C 0,4 km/h
21.12.2009 23:00 -8,9 C 86 % 1005,8 hPa 0,0 l/m 0,1 km/h N -10,9 C -8,9 C 1,6 km/h
22.12.2009 00:00 -8,8 C 86 % 1004,6 hPa 0,0 l/m 0,1 km/h N -10,7 C -8,8 C 2,0 km/h
22.12.2009 01:00 -9,3 C 86 % 1003,5 hPa 0,0 l/m 0,0 km/h N -11,3 C -9,3 C 1,6 km/h
22.12.2009 02:00 -9,2 C 86 % 1003,1 hPa 0,0 l/m 0,1 km/h N -11,1 C -9,2 C 1,2 km/h
22.12.2009 03:00 -8,4 C 87 % 1002,5 hPa 0,0 l/m 0,1 km/h N -10,2 C -8,4 C 1,6 km/h
22.12.2009 04:00 -6,7 C 88 % 1002,1 hPa 0,0 l/m 0,6 km/h N -8,3 C -6,7 C 3,6 km/h
22.12.2009 05:00 -5,8 C 88 % 1001,6 hPa 0,0 l/m 0,3 km/h N -7,4 C -5,8 C 2,4 km/h
22.12.2009 06:00 -5,2 C 87 % 1000,6 hPa 0,0 l/m 0,0 km/h N -7,0 C -5,2 C 0,8 km/h
22.12.2009 07:00 -4,6 C 87 % 1000,1 hPa 0,0 l/m 0,0 km/h N -6,4 C -4,6 C 0,8 km/h
22.12.2009 08:00 -3,8 C 88 % 1000,1 hPa 0,0 l/m 0,0 km/h N -5,4 C -3,8 C 1,2 km/h
22.12.2009 09:00 -2,0 C 89 % 999,9 hPa 0,0 l/m 0,4 km/h N -3,6 C -2,0 C 2,4 km/h
22.12.2009 10:00 -0,3 C 87 % 999,5 hPa 0,0 l/m 0,4 km/h N -2,2 C -0,3 C 2,4 km/h
22.12.2009 11:00 1,6 C 81 % 998,9 hPa 0,0 l/m 0,9 km/h N-NW -1,4 C 1,6 C 4,0 km/h
22.12.2009 12:00 3,4 C 77 % 998,4 hPa 0,3 l/m 1,7 km/h NO -0,2 C 3,4 C 4,8 km/h
22.12.2009 13:00 5,0 C 75 % 998,0 hPa 0,8 l/m 1,5 km/h N-NW 1,0 C 5,0 C 5,6 km/h
22.12.2009 14:00 6,1 C 73 % 998,0 hPa 1,0 l/m 1,4 km/h NW 1,6 C 6,1 C 5,6 km/h
22.12.2009 15:00 5,5 C 73 % 998,3 hPa 0,5 l/m 0,2 km/h N 1,1 C 5,5 C 2,0 km/h
22.12.2009 16:00 3,2 C 78 % 998,8 hPa 0,0 l/m 0,2 km/h N -0,3 C 3,2 C 2,0 km/h
22.12.2009 17:00 1,8 C 82 % 999,0 hPa 0,0 l/m 0,1 km/h N -0,9 C 1,8 C 2,0 km/h
22.12.2009 18:00 0,6 C 86 % 999,0 hPa 0,0 l/m 0,3 km/h N -1,5 C 0,6 C 2,0 km/h
22.12.2009 19:00 0,4 C 88 % 998,9 hPa 0,0 l/m 0,3 km/h N -1,4 C 0,4 C 2,0 km/h
22.12.2009 20:00 -0,3 C 88 % 998,4 hPa 0,0 l/m 0,2 km/h N -2,0 C -0,3 C 2,8 km/h
22.12.2009 21:00 -1,1 C 88 % 997,7 hPa 0,0 l/m 0,0 km/h N -2,8 C -1,1 C 0,8 km/h
22.12.2009 22:00 -1,6 C 89 % 996,9 hPa 0,0 l/m 0,1 km/h N -3,2 C -1,6 C 2,0 km/h
22.12.2009 23:00 -0,7 C 90 % 996,0 hPa 0,0 l/m 0,6 km/h S-SO -2,1 C -0,7 C 4,8 km/h
23.12.2009 00:00 4,2 C 92 % 994,8 hPa 0,0 l/m 2,6 km/h O-SO 3,1 C 4,2 C 8,4 km/h
23.12.2009 01:00 5,4 C 92 % 993,3 hPa 0,3 l/m 2,5 km/h SO 4,2 C 5,4 C 10,4 km/h
23.12.2009 02:00 6,8 C 92 % 992,4 hPa 0,3 l/m 6,8 km/h S-SO 5,5 C 6,4 C 19,3 km/h
23.12.2009 03:00 7,5 C 88 % 991,8 hPa 0,5 l/m 6,1 km/h O-NO 5,6 C 7,4 C 18,5 km/h
23.12.2009 04:00 6,7 C 86 % 991,3 hPa 0,0 l/m 4,0 km/h S-SO 4,4 C 6,7 C 12,9 km/h
23.12.2009 05:00 6,4 C 87 % 990,9 hPa 0,0 l/m 6,4 km/h S-SO 4,4 C 6,2 C 22,9 km/h
23.12.2009 06:00 6,6 C 88 % 991,2 hPa 0,0 l/m 3,5 km/h S-SO 4,8 C 6,6 C 10,1 km/h
23.12.2009 07:00 6,4 C 88 % 990,9 hPa 0,0 l/m 2,6 km/h S-SO 4,5 C 6,4 C 11,6 km/h
23.12.2009 08:00 6,3 C 89 % 991,4 hPa 0,0 l/m 1,0 km/h S-SO 4,5 C 6,3 C 4,8 km/h
23.12.2009 09:00 6,3 C 89 % 993,1 hPa 0,0 l/m 0,9 km/h SW 4,6 C 6,3 C 4,8 km/h
23.12.2009 10:00 6,6 C 89 % 994,6 hPa 0,0 l/m 1,7 km/h W 5,0 C 6,6 C 7,3 km/h
23.12.2009 11:00 7,6 C 82 % 995,3 hPa 0,3 l/m 6,9 km/h W-SW 4,7 C 6,9 C 23,4 km/h
23.12.2009 12:00 8,1 C 78 % 996,0 hPa 0,3 l/m 10,7 km/h N-NO 4,5 C 5,2 C 28,6 km/h
23.12.2009 13:00 8,9 C 72 % 997,0 hPa 0,0 l/m 14,0 km/h W-NW 4,2 C 4,4 C 35,4 km/h
23.12.2009 14:00 7,5 C 75 % 998,6 hPa 0,0 l/m 16,3 km/h W 3,4 C 1,7 C 39,0 km/h
23.12.2009 15:00 6,7 C 74 % 1001,3 hPa 0,0 l/m 6,5 km/h N-NO 2,4 C 5,9 C 26,5 km/h
23.12.2009 16:00 6,1 C 75 % 1003,0 hPa 0,0 l/m 3,7 km/h W 2,0 C 6,1 C 11,7 km/h
23.12.2009 17:00 5,8 C 75 % 1004,1 hPa 0,0 l/m 3,2 km/h NW 1,7 C 5,8 C 10,4 km/h
23.12.2009 18:00 5,0 C 77 % 1004,7 hPa 0,0 l/m 1,2 km/h N-NO 1,3 C 5,0 C 5,2 km/h
23.12.2009 19:00 4,4 C 80 % 1005,3 hPa 0,0 l/m 1,4 km/h N-NW 1,2 C 4,4 C 6,0 km/h
23.12.2009 20:00 4,2 C 81 % 1005,3 hPa 0,0 l/m 2,0 km/h N-NO 1,2 C 4,2 C 6,8 km/h
23.12.2009 21:00 4,0 C 82 % 1005,2 hPa 0,0 l/m 0,3 km/h N 1,1 C 4,0 C 3,2 km/h
23.12.2009 22:00 3,8 C 84 % 1005,1 hPa 0,0 l/m 0,3 km/h N 1,2 C 3,8 C 4,0 km/h
23.12.2009 23:00 3,6 C 85 % 1005,0 hPa 0,0 l/m 0,1 km/h N 1,3 C 3,6 C 2,4 km/h
24.12.2009 00:00 3,4 C 86 % 1004,2 hPa 0,0 l/m 0,6 km/h S 1,2 C 3,4 C 3,6 km/h
24.12.2009 01:00 3,5 C 86 % 1003,6 hPa 0,0 l/m 0,6 km/h O-SO 1,4 C 3,5 C 5,6 km/h
24.12.2009 02:00 3,6 C 86 % 1003,3 hPa 0,0 l/m 2,4 km/h O 1,5 C 3,6 C 6,8 km/h
24.12.2009 03:00 3,4 C 87 % 1002,5 hPa 0,0 l/m 2,0 km/h O-SO 1,4 C 3,4 C 6,4 km/h
24.12.2009 04:00 3,7 C 87 % 1001,4 hPa 0,0 l/m 1,5 km/h S-SO 1,7 C 3,7 C 6,4 km/h
24.12.2009 05:00 3,4 C 87 % 1000,6 hPa 0,0 l/m 1,4 km/h SO 1,5 C 3,4 C 6,0 km/h
24.12.2009 06:00 2,7 C 88 % 1000,4 hPa 0,0 l/m 0,3 km/h N 0,9 C 2,7 C 2,4 km/h
24.12.2009 07:00 2,2 C 89 % 1000,3 hPa 0,0 l/m 0,0 km/h N 0,5 C 2,2 C 1,6 km/h
24.12.2009 08:00 2,0 C 89 % 1000,4 hPa 0,0 l/m 0,0 km/h N 0,4 C 2,0 C 0,4 km/h
24.12.2009 09:00 2,2 C 90 % 1000,0 hPa 0,0 l/m 0,1 km/h N 0,8 C 2,2 C 2,0 km/h
24.12.2009 10:00 4,4 C 92 % 999,3 hPa 0,0 l/m 2,1 km/h O-NO 3,2 C 4,4 C 4,8 km/h
24.12.2009 11:00 10,1 C 84 % 998,2 hPa 0,0 l/m 4,0 km/h S-SO 7,5 C 10,1 C 13,7 km/h
24.12.2009 12:00 10,8 C 79 % 997,9 hPa 0,0 l/m 2,5 km/h S-SO 7,4 C 10,8 C 10,1 km/h
24.12.2009 13:00 11,0 C 80 % 996,9 hPa 0,0 l/m 1,8 km/h S-SO 7,7 C 11,0 C 6,4 km/h
24.12.2009 14:00 12,0 C 78 % 996,2 hPa 0,0 l/m 3,4 km/h O-SO 8,2 C 12,0 C 9,3 km/h
24.12.2009 15:00 12,6 C 76 % 996,2 hPa 0,0 l/m 5,2 km/h S-SO 8,3 C 12,4 C 16,1 km/h
24.12.2009 16:00 11,6 C 77 % 995,9 hPa 0,0 l/m 3,3 km/h S-SO 7,8 C 11,6 C 9,6 km/h
24.12.2009 17:00 11,3 C 80 % 995,6 hPa 0,0 l/m 4,1 km/h S-SO 7,8 C 11,3 C 12,5 km/h
24.12.2009 18:00 11,6 C 80 % 995,3 hPa 0,0 l/m 6,0 km/h SO 8,2 C 11,3 C 20,1 km/h
24.12.2009 19:00 12,5 C 76 % 994,5 hPa 0,0 l/m 7,0 km/h S-SO 8,4 C 12,1 C 20,5 km/h
24.12.2009 20:00 13,0 C 74 % 994,0 hPa 0,0 l/m 6,2 km/h S-SO 8,4 C 12,0 C 18,1 km/h
24.12.2009 21:00 13,3 C 75 % 994,0 hPa 0,0 l/m 6,4 km/h S 8,9 C 12,6 C 23,7 km/h
24.12.2009 22:00 13,9 C 75 % 993,3 hPa 0,0 l/m 9,5 km/h S-SW 9,4 C 12,1 C 24,1 km/h
24.12.2009 23:00 13,6 C 78 % 992,7 hPa 0,3 l/m 8,7 km/h S-SO 9,9 C 12,4 C 27,4 km/h
25.12.2009 00:00 13,3 C 78 % 991,9 hPa 0,0 l/m 4,1 km/h SO 9,5 C 13,3 C 14,9 km/h
25.12.2009 01:00 13,7 C 76 % 990,9 hPa 0,0 l/m 4,9 km/h S 9,6 C 13,7 C 16,5 km/h
25.12.2009 02:00 13,5 C 78 % 990,2 hPa 0,0 l/m 6,8 km/h S-SO 9,7 C 13,0 C 27,0 km/h
25.12.2009 03:00 13,6 C 78 % 989,8 hPa 0,0 l/m 6,2 km/h SO 9,9 C 13,4 C 20,9 km/h
25.12.2009 04:00 13,6 C 79 % 989,2 hPa 0,0 l/m 6,4 km/h SO 10,0 C 13,1 C 23,8 km/h
25.12.2009 05:00 13,8 C 78 % 988,8 hPa 0,0 l/m 6,2 km/h O-SO 10,1 C 13,4 C 22,5 km/h
25.12.2009 06:00 13,7 C 78 % 988,3 hPa 0,0 l/m 2,6 km/h O-SO 10,0 C 13,7 C 9,2 km/h
25.12.2009 07:00 13,8 C 78 % 989,3 hPa 0,0 l/m 3,1 km/h S-SO 10,1 C 13,8 C 8,9 km/h
25.12.2009 08:00 13,5 C 78 % 990,2 hPa 0,0 l/m 0,6 km/h SW 9,7 C 13,5 C 5,2 km/h
25.12.2009 09:00 13,0 C 75 % 991,4 hPa 0,0 l/m 2,3 km/h W-SW 8,6 C 13,0 C 6,8 km/h
25.12.2009 10:00 13,7 C 65 % 992,5 hPa 0,0 l/m 0,8 km/h N-NW 7,3 C 13,7 C 6,4 km/h
25.12.2009 11:00 14,3 C 63 % 993,2 hPa 0,0 l/m 0,5 km/h N 7,2 C 14,3 C 3,6 km/h
25.12.2009 12:00 14,4 C 62 % 993,2 hPa 0,0 l/m 3,3 km/h W-SW 7,3 C 14,4 C 12,5 km/h
25.12.2009 13:00 14,5 C 58 % 993,1 hPa 0,0 l/m 9,1 km/h W-SW 6,4 C 13,1 C 25,8 km/h
25.12.2009 14:00 11,8 C 68 % 994,6 hPa 1,6 l/m 18,2 km/h W-SW 6,0 C 6,1 C 43,8 km/h
25.12.2009 15:00 9,1 C 77 % 996,7 hPa 2,6 l/m 18,3 km/h W-SW 5,3 C 2,8 C 41,0 km/h
25.12.2009 16:00 8,4 C 75 % 997,5 hPa 0,0 l/m 18,5 km/h NW 4,2 C 1,8 C 43,9 km/h
25.12.2009 17:00 8,3 C 70 % 998,5 hPa 0,0 l/m 17,8 km/h W-NW 3,0 C 1,9 C 41,8 km/h
25.12.2009 18:00 7,7 C 68 % 999,7 hPa 0,0 l/m 20,4 km/h NW 2,2 C 0,1 C 40,6 km/h
25.12.2009 19:00 7,4 C 68 % 1000,7 hPa 0,0 l/m 20,1 km/h W-NW 2,0 C -0,1 C 43,9 km/h
25.12.2009 20:00 7,3 C 68 % 1001,9 hPa 0,0 l/m 16,9 km/h W 1,7 C 0,9 C 36,6 km/h
25.12.2009 21:00 7,3 C 66 % 1002,1 hPa 0,0 l/m 18,8 km/h NW 1,4 C 0,3 C 41,0 km/h
25.12.2009 22:00 7,3 C 65 % 1003,1 hPa 0,0 l/m 21,4 km/h NW 1,1 C -0,7 C 46,7 km/h
25.12.2009 23:00 7,1 C 64 % 1004,4 hPa 0,0 l/m 20,8 km/h W 0,8 C -0,8 C 43,4 km/h
26.12.2009 00:00 6,9 C 62 % 1005,3 hPa 0,0 l/m 21,9 km/h W 0,1 C -1,4 C 45,9 km/h
26.12.2009 01:00 6,5 C 62 % 1006,3 hPa 0,0 l/m 21,3 km/h W -0,3 C -1,6 C 46,7 km/h
26.12.2009 02:00 6,1 C 62 % 1007,3 hPa 0,0 l/m 19,4 km/h W -0,6 C -1,5 C 41,4 km/h
26.12.2009 03:00 5,9 C 62 % 1007,5 hPa 0,0 l/m 20,5 km/h W-SW -0,8 C -2,2 C 39,8 km/h
26.12.2009 04:00 5,9 C 59 % 1007,6 hPa 0,0 l/m 22,6 km/h W-NW -1,4 C -2,9 C 48,3 km/h
26.12.2009 05:00 5,9 C 59 % 1008,5 hPa 0,0 l/m 19,7 km/h W -1,5 C -1,9 C 43,8 km/h
26.12.2009 06:00 5,7 C 57 % 1009,4 hPa 0,0 l/m 18,5 km/h NW -2,2 C -1,6 C 43,0 km/h
26.12.2009 07:00 5,4 C 57 % 1010,9 hPa 0,0 l/m 11,9 km/h S -2,6 C 1,3 C 33,4 km/h
26.12.2009 08:00 5,5 C 56 % 1011,7 hPa 0,0 l/m 12,2 km/h W -2,6 C 1,2 C 34,6 km/h
26.12.2009 09:00 5,8 C 54 % 1012,4 hPa 0,0 l/m 9,6 km/h W -2,8 C 3,3 C 26,1 km/h
26.12.2009 10:00 6,4 C 51 % 1013,4 hPa 0,0 l/m 6,9 km/h W -2,9 C 5,6 C 21,7 km/h
26.12.2009 11:00 7,0 C 48 % 1013,5 hPa 0,0 l/m 9,3 km/h W-NW -3,3 C 4,8 C 22,9 km/h
26.12.2009 12:00 7,3 C 47 % 1013,0 hPa 0,0 l/m 7,5 km/h NW -3,2 C 6,4 C 20,5 km/h
26.12.2009 13:00 7,6 C 47 % 1012,4 hPa 0,0 l/m 5,9 km/h W-SW -3,0 C 7,4 C 13,7 km/h
26.12.2009 14:00 7,9 C 47 % 1011,9 hPa 0,0 l/m 2,1 km/h W -2,8 C 7,9 C 6,8 km/h
26.12.2009 15:00 7,3 C 49 % 1011,5 hPa 0,0 l/m 0,3 km/h N -2,7 C 7,3 C 2,0 km/h
26.12.2009 16:00 4,7 C 57 % 1011,8 hPa 0,0 l/m 0,0 km/h N -3,1 C 4,7 C 0,8 km/h
26.12.2009 17:00 1,6 C 67 % 1012,1 hPa 0,0 l/m 0,0 km/h N -3,8 C 1,6 C 0,0 km/h
26.12.2009 18:00 -0,3 C 75 % 1011,8 hPa 0,0 l/m 0,0 km/h N -4,3 C -0,3 C 0,0 km/h
26.12.2009 19:00 -1,4 C 79 % 1011,6 hPa 0,0 l/m 0,0 km/h N -4,6 C -1,4 C 0,0 km/h
26.12.2009 20:00 -2,0 C 82 % 1010,8 hPa 0,0 l/m 0,0 km/h N -4,7 C -2,0 C 1,2 km/h
26.12.2009 21:00 -2,4 C 83 % 1010,4 hPa 0,0 l/m 0,0 km/h N -4,9 C -2,4 C 0,0 km/h
26.12.2009 22:00 -3,0 C 83 % 1010,5 hPa 0,0 l/m 0,0 km/h N -5,5 C -3,0 C 0,0 km/h
26.12.2009 23:00 -3,3 C 85 % 1010,2 hPa 0,0 l/m 0,0 km/h N -5,4 C -3,3 C 1,2 km/h
27.12.2009 00:00 -2,9 C 87 % 1009,7 hPa 0,0 l/m 0,0 km/h N -4,8 C -2,9 C 0,4 km/h
27.12.2009 01:00 -2,9 C 87 % 1009,4 hPa 0,0 l/m 0,0 km/h N -4,8 C -2,9 C 0,8 km/h
27.12.2009 02:00 -3,3 C 87 % 1009,2 hPa 0,0 l/m 0,0 km/h N -5,1 C -3,3 C 0,4 km/h
27.12.2009 03:00 -3,3 C 88 % 1008,9 hPa 0,0 l/m 0,0 km/h N -5,0 C -3,3 C 0,8 km/h
27.12.2009 04:00 -3,3 C 88 % 1008,7 hPa 0,0 l/m 0,0 km/h N -4,9 C -3,3 C 0,0 km/h
27.12.2009 05:00 -2,8 C 89 % 1009,0 hPa 0,0 l/m 0,2 km/h N -4,3 C -2,8 C 2,4 km/h
27.12.2009 06:00 -1,4 C 90 % 1009,3 hPa 0,0 l/m 0,0 km/h N -2,8 C -1,4 C 1,2 km/h
27.12.2009 07:00 -0,3 C 91 % 1009,4 hPa 0,0 l/m 0,0 km/h N -1,6 C -0,3 C 0,4 km/h
27.12.2009 08:00 0,1 C 91 % 1009,3 hPa 0,0 l/m 0,0 km/h N -1,2 C 0,1 C 1,2 km/h
27.12.2009 09:00 0,5 C 91 % 1009,3 hPa 0,0 l/m 0,2 km/h N -0,8 C 0,5 C 2,4 km/h
27.12.2009 10:00 1,0 C 91 % 1009,4 hPa 0,0 l/m 1,3 km/h N-NO -0,3 C 1,0 C 4,4 km/h
27.12.2009 11:00 3,4 C 73 % 1008,8 hPa 0,0 l/m 0,3 km/h W-NW -1,0 C 3,4 C 3,6 km/h
27.12.2009 12:00 4,0 C 66 % 1008,4 hPa 0,0 l/m 1,3 km/h W-SW -1,8 C 4,0 C 6,0 km/h
27.12.2009 13:00 3,6 C 67 % 1008,0 hPa 0,0 l/m 3,0 km/h W-NW -2,0 C 3,5 C 12,9 km/h
27.12.2009 14:00 4,2 C 58 % 1007,5 hPa 0,0 l/m 9,4 km/h W-SW -3,4 C 1,8 C 25,7 km/h
27.12.2009 15:00 3,7 C 61 % 1007,7 hPa 0,0 l/m 7,0 km/h W -3,2 C 3,2 C 22,1 km/h
27.12.2009 16:00 3,0 C 64 % 1007,7 hPa 0,0 l/m 7,0 km/h W-NW -3,1 C 2,2 C 20,5 km/h
27.12.2009 17:00 2,5 C 65 % 1007,7 hPa 0,0 l/m 4,9 km/h W -3,3 C 2,2 C 16,1 km/h
27.12.2009 18:00 2,4 C 66 % 1007,3 hPa 0,0 l/m 4,0 km/h W -3,4 C 2,4 C 16,1 km/h
27.12.2009 19:00 2,6 C 62 % 1006,9 hPa 0,0 l/m 4,1 km/h W -3,9 C 2,6 C 16,5 km/h
27.12.2009 20:00 2,8 C 58 % 1007,0 hPa 0,0 l/m 6,6 km/h W-NW -4,7 C 2,2 C 20,1 km/h
27.12.2009 21:00 2,8 C 55 % 1006,8 hPa 0,0 l/m 8,1 km/h W -5,4 C 1,1 C 24,9 km/h
27.12.2009 22:00 2,7 C 52 % 1006,8 hPa 0,0 l/m 3,8 km/h W-NW -6,2 C 2,7 C 12,9 km/h
27.12.2009 23:00 3,4 C 53 % 1006,7 hPa 0,0 l/m 8,4 km/h NW -5,4 C 1,5 C 21,7 km/h
Min-Datum _ 21.12.09 26.12.09 25.12.09 - 21.12.09 - 21.12.09 21.12.09 21.12.09
_ Min-Zeit 00:00 14:00 06:15 - 03:15 - 01:30 00:00 20:00
Minimum _ -12,3 C 46 % 988,1 hPa - 0,0 km/h - -14,7 C -12,3 C 0,0 km/h
Max-Datum _ 25.12.09 23.12.09 21.12.09 25.12.09 25.12.09 - 25.12.09 25.12.09 25.12.09
_ Max-Zeit 12:45 00:00 09:30 15:00 22:00 - 07:15 12:45 14:45
Maximum _ 14,7 C 93 % 1014,0 hPa 2,6 l/m 23,8 km/h
NW
- 10,2 C 14,7 C 53,1 km/h
W
Durchschnitt _ 2,8 C 77 % 1002,8 hPa #8,6 l/m 4,4 km/h W -1,1 C 1,7 C 12,5 km/h